sensor_id;sensor_type;location;lat;lon;timestamp;temperature;humidity
4207;DHT22;2117;47.972;7.830;2023-04-19T00:00:06;10.00;99.90
4207;DHT22;2117;47.972;7.830;2023-04-19T00:02:34;9.90;99.90
4207;DHT22;2117;47.972;7.830;2023-04-19T00:05:00;9.90;99.90
4207;DHT22;2117;47.972;7.830;2023-04-19T00:07:26;9.90;99.90
4207;DHT22;2117;47.972;7.830;2023-04-19T00:09:52;9.90;99.90
4207;DHT22;2117;47.972;7.830;2023-04-19T00:12:17;9.90;99.90
4207;DHT22;2117;47.972;7.830;2023-04-19T00:14:43;9.90;99.90
4207;DHT22;2117;47.972;7.830;2023-04-19T00:17:09;9.90;99.90
4207;DHT22;2117;47.972;7.830;2023-04-19T00:19:36;9.90;99.90
4207;DHT22;2117;47.972;7.830;2023-04-19T00:22:02;9.80;99.90
4207;DHT22;2117;47.972;7.830;2023-04-19T00:24:27;9.80;99.90
4207;DHT22;2117;47.972;7.830;2023-04-19T00:26:53;9.70;99.90
4207;DHT22;2117;47.972;7.830;2023-04-19T00:29:18;9.70;99.90
4207;DHT22;2117;47.972;7.830;2023-04-19T00:31:44;9.70;99.90
4207;DHT22;2117;47.972;7.830;2023-04-19T00:34:09;9.60;99.90
4207;DHT22;2117;47.972;7.830;2023-04-19T00:36:35;9.60;99.90
4207;DHT22;2117;47.972;7.830;2023-04-19T00:39:01;9.50;99.90
4207;DHT22;2117;47.972;7.830;2023-04-19T00:41:27;9.40;99.90
4207;DHT22;2117;47.972;7.830;2023-04-19T00:43:53;9.30;99.90
4207;DHT22;2117;47.972;7.830;2023-04-19T00:46:19;9.30;99.90
4207;DHT22;2117;47.972;7.830;2023-04-19T00:48:45;9.30;99.90
4207;DHT22;2117;47.972;7.830;2023-04-19T00:51:10;9.30;99.90
4207;DHT22;2117;47.972;7.830;2023-04-19T00:53:37;9.30;99.90
4207;DHT22;2117;47.972;7.830;2023-04-19T00:56:04;9.30;99.90
4207;DHT22;2117;47.972;7.830;2023-04-19T00:58:31;9.30;99.90
4207;DHT22;2117;47.972;7.830;2023-04-19T01:00:56;9.20;99.90
4207;DHT22;2117;47.972;7.830;2023-04-19T01:03:22;9.10;99.90
4207;DHT22;2117;47.972;7.830;2023-04-19T01:08:23;9.10;99.90
4207;DHT22;2117;47.972;7.830;2023-04-19T01:10:48;9.00;99.90
4207;DHT22;2117;47.972;7.830;2023-04-19T01:13:14;9.00;99.90
4207;DHT22;2117;47.972;7.830;2023-04-19T01:15:40;8.90;99.90
4207;DHT22;2117;47.972;7.830;2023-04-19T01:18:05;8.90;99.90
4207;DHT22;2117;47.972;7.830;2023-04-19T01:20:31;8.80;99.90
4207;DHT22;2117;47.972;7.830;2023-04-19T01:22:56;8.70;99.90
4207;DHT22;2117;47.972;7.830;2023-04-19T01:25:22;8.70;99.90
4207;DHT22;2117;47.972;7.830;2023-04-19T01:27:47;8.70;99.90
4207;DHT22;2117;47.972;7.830;2023-04-19T01:30:13;8.60;99.90
4207;DHT22;2117;47.972;7.830;2023-04-19T01:32:39;8.50;99.90
4207;DHT22;2117;47.972;7.830;2023-04-19T01:35:05;8.50;99.90
4207;DHT22;2117;47.972;7.830;2023-04-19T01:37:34;8.50;99.90
4207;DHT22;2117;47.972;7.830;2023-04-19T01:39:59;8.50;99.90
4207;DHT22;2117;47.972;7.830;2023-04-19T01:42:25;8.40;99.90
4207;DHT22;2117;47.972;7.830;2023-04-19T01:44:51;8.40;99.90
4207;DHT22;2117;47.972;7.830;2023-04-19T01:47:16;8.40;99.90
4207;DHT22;2117;47.972;7.830;2023-04-19T01:49:42;8.30;99.90
4207;DHT22;2117;47.972;7.830;2023-04-19T01:52:07;8.20;99.90
4207;DHT22;2117;47.972;7.830;2023-04-19T01:54:33;8.20;99.90
4207;DHT22;2117;47.972;7.830;2023-04-19T01:56:58;8.10;99.90
4207;DHT22;2117;47.972;7.830;2023-04-19T01:59:24;8.10;99.90
4207;DHT22;2117;47.972;7.830;2023-04-19T02:01:49;8.10;99.90
4207;DHT22;2117;47.972;7.830;2023-04-19T02:04:17;8.00;99.90
4207;DHT22;2117;47.972;7.830;2023-04-19T02:06:42;8.00;99.90
4207;DHT22;2117;47.972;7.830;2023-04-19T02:09:08;8.00;99.90
4207;DHT22;2117;47.972;7.830;2023-04-19T02:11:33;8.00;99.90
4207;DHT22;2117;47.972;7.830;2023-04-19T02:13:59;7.90;99.90
4207;DHT22;2117;47.972;7.830;2023-04-19T02:16:25;7.90;99.90
4207;DHT22;2117;47.972;7.830;2023-04-19T02:18:50;7.80;99.90
4207;DHT22;2117;47.972;7.830;2023-04-19T02:21:16;7.80;99.90
4207;DHT22;2117;47.972;7.830;2023-04-19T02:23:41;7.70;99.90
4207;DHT22;2117;47.972;7.830;2023-04-19T02:26:07;7.70;99.90
4207;DHT22;2117;47.972;7.830;2023-04-19T02:28:33;7.60;99.90
4207;DHT22;2117;47.972;7.830;2023-04-19T02:31:03;7.60;99.90
4207;DHT22;2117;47.972;7.830;2023-04-19T02:33:29;7.60;99.90
4207;DHT22;2117;47.972;7.830;2023-04-19T02:35:54;7.50;99.90
4207;DHT22;2117;47.972;7.830;2023-04-19T02:38:20;7.50;99.90
4207;DHT22;2117;47.972;7.830;2023-04-19T02:40:46;7.50;99.90
4207;DHT22;2117;47.972;7.830;2023-04-19T02:43:11;7.40;99.90
4207;DHT22;2117;47.972;7.830;2023-04-19T02:45:37;7.40;99.90
4207;DHT22;2117;47.972;7.830;2023-04-19T02:48:02;7.40;99.90
4207;DHT22;2117;47.972;7.830;2023-04-19T02:50:28;7.30;99.90
4207;DHT22;2117;47.972;7.830;2023-04-19T02:52:53;7.30;99.90
4207;DHT22;2117;47.972;7.830;2023-04-19T02:55:19;7.30;99.90
4207;DHT22;2117;47.972;7.830;2023-04-19T02:57:45;7.30;99.90
4207;DHT22;2117;47.972;7.830;2023-04-19T03:00:11;7.20;99.90
4207;DHT22;2117;47.972;7.830;2023-04-19T03:02:36;7.20;99.90
4207;DHT22;2117;47.972;7.830;2023-04-19T03:05:03;7.20;99.90
4207;DHT22;2117;47.972;7.830;2023-04-19T03:07:30;7.10;99.90
4207;DHT22;2117;47.972;7.830;2023-04-19T03:09:56;7.10;99.90
4207;DHT22;2117;47.972;7.830;2023-04-19T03:12:21;7.10;99.90
4207;DHT22;2117;47.972;7.830;2023-04-19T03:14:47;7.00;99.90
4207;DHT22;2117;47.972;7.830;2023-04-19T03:17:13;7.00;99.90
4207;DHT22;2117;47.972;7.830;2023-04-19T03:19:39;6.90;99.90
4207;DHT22;2117;47.972;7.830;2023-04-19T03:22:05;6.90;99.90
4207;DHT22;2117;47.972;7.830;2023-04-19T03:24:31;6.90;99.90
4207;DHT22;2117;47.972;7.830;2023-04-19T03:26:56;6.90;99.90
4207;DHT22;2117;47.972;7.830;2023-04-19T03:29:22;6.90;99.90
4207;DHT22;2117;47.972;7.830;2023-04-19T03:31:48;6.80;99.90
4207;DHT22;2117;47.972;7.830;2023-04-19T03:34:14;6.80;99.90
4207;DHT22;2117;47.972;7.830;2023-04-19T03:36:40;6.80;99.90
4207;DHT22;2117;47.972;7.830;2023-04-19T03:39:06;6.80;99.90
4207;DHT22;2117;47.972;7.830;2023-04-19T03:41:32;6.80;99.90
4207;DHT22;2117;47.972;7.830;2023-04-19T03:43:58;6.70;99.90
4207;DHT22;2117;47.972;7.830;2023-04-19T03:46:24;6.70;99.90
4207;DHT22;2117;47.972;7.830;2023-04-19T03:48:49;6.60;99.90
4207;DHT22;2117;47.972;7.830;2023-04-19T03:51:15;6.60;99.90
4207;DHT22;2117;47.972;7.830;2023-04-19T03:53:41;6.50;99.90
4207;DHT22;2117;47.972;7.830;2023-04-19T03:56:07;6.50;99.90
4207;DHT22;2117;47.972;7.830;2023-04-19T03:58:32;6.50;99.90
4207;DHT22;2117;47.972;7.830;2023-04-19T04:00:58;6.40;99.90
4207;DHT22;2117;47.972;7.830;2023-04-19T04:03:24;6.50;99.90
4207;DHT22;2117;47.972;7.830;2023-04-19T04:05:50;6.50;99.90
4207;DHT22;2117;47.972;7.830;2023-04-19T04:08:15;6.40;99.90
4207;DHT22;2117;47.972;7.830;2023-04-19T04:10:41;6.40;99.90
4207;DHT22;2117;47.972;7.830;2023-04-19T04:13:06;6.40;99.90
4207;DHT22;2117;47.972;7.830;2023-04-19T04:15:32;6.30;99.90
4207;DHT22;2117;47.972;7.830;2023-04-19T04:17:57;6.40;99.90
4207;DHT22;2117;47.972;7.830;2023-04-19T04:20:23;6.40;99.90
4207;DHT22;2117;47.972;7.830;2023-04-19T04:22:49;6.40;99.90
4207;DHT22;2117;47.972;7.830;2023-04-19T04:25:15;6.40;99.90
4207;DHT22;2117;47.972;7.830;2023-04-19T04:27:41;6.30;99.90
4207;DHT22;2117;47.972;7.830;2023-04-19T04:30:09;6.30;99.90
4207;DHT22;2117;47.972;7.830;2023-04-19T04:32:35;6.30;99.90
4207;DHT22;2117;47.972;7.830;2023-04-19T04:35:02;6.40;99.90
4207;DHT22;2117;47.972;7.830;2023-04-19T04:37:28;6.40;99.90
4207;DHT22;2117;47.972;7.830;2023-04-19T04:39:55;6.40;99.90
4207;DHT22;2117;47.972;7.830;2023-04-19T04:42:21;6.40;99.90
4207;DHT22;2117;47.972;7.830;2023-04-19T04:44:46;6.40;99.90
4207;DHT22;2117;47.972;7.830;2023-04-19T04:47:12;6.50;99.90
4207;DHT22;2117;47.972;7.830;2023-04-19T04:49:38;6.50;99.90
4207;DHT22;2117;47.972;7.830;2023-04-19T04:52:03;6.60;99.90
4207;DHT22;2117;47.972;7.830;2023-04-19T04:54:29;6.60;99.90
4207;DHT22;2117;47.972;7.830;2023-04-19T04:56:55;6.60;99.90
4207;DHT22;2117;47.972;7.830;2023-04-19T04:59:20;6.60;99.90
4207;DHT22;2117;47.972;7.830;2023-04-19T05:01:46;6.70;99.90
4207;DHT22;2117;47.972;7.830;2023-04-19T05:04:11;6.70;99.90
4207;DHT22;2117;47.972;7.830;2023-04-19T05:06:37;6.70;99.90
4207;DHT22;2117;47.972;7.830;2023-04-19T05:09:05;6.80;99.90
4207;DHT22;2117;47.972;7.830;2023-04-19T05:11:32;6.90;99.90
4207;DHT22;2117;47.972;7.830;2023-04-19T05:13:57;7.00;99.90
4207;DHT22;2117;47.972;7.830;2023-04-19T05:16:24;7.00;99.90
4207;DHT22;2117;47.972;7.830;2023-04-19T05:18:49;7.00;99.90
4207;DHT22;2117;47.972;7.830;2023-04-19T05:21:15;7.20;99.90
4207;DHT22;2117;47.972;7.830;2023-04-19T05:23:40;7.20;99.90
4207;DHT22;2117;47.972;7.830;2023-04-19T05:26:06;7.20;99.90
4207;DHT22;2117;47.972;7.830;2023-04-19T05:28:31;7.30;99.90
4207;DHT22;2117;47.972;7.830;2023-04-19T05:30:57;7.30;99.90
4207;DHT22;2117;47.972;7.830;2023-04-19T05:33:22;7.40;99.90
4207;DHT22;2117;47.972;7.830;2023-04-19T05:35:48;7.50;99.90
4207;DHT22;2117;47.972;7.830;2023-04-19T05:38:14;7.60;99.90
4207;DHT22;2117;47.972;7.830;2023-04-19T05:40:39;7.70;99.90
4207;DHT22;2117;47.972;7.830;2023-04-19T05:43:05;7.70;99.90
4207;DHT22;2117;47.972;7.830;2023-04-19T05:45:31;7.70;99.90
4207;DHT22;2117;47.972;7.830;2023-04-19T05:47:56;7.70;99.90
4207;DHT22;2117;47.972;7.830;2023-04-19T05:50:22;7.70;99.90
4207;DHT22;2117;47.972;7.830;2023-04-19T05:52:47;7.80;99.90
4207;DHT22;2117;47.972;7.830;2023-04-19T05:55:13;7.80;99.90
4207;DHT22;2117;47.972;7.830;2023-04-19T05:57:38;7.90;99.90
4207;DHT22;2117;47.972;7.830;2023-04-19T06:00:04;7.90;99.90
4207;DHT22;2117;47.972;7.830;2023-04-19T06:02:30;7.90;99.90
4207;DHT22;2117;47.972;7.830;2023-04-19T06:04:56;7.90;99.90
4207;DHT22;2117;47.972;7.830;2023-04-19T06:07:31;8.00;99.90
4207;DHT22;2117;47.972;7.830;2023-04-19T06:09:57;8.00;99.90
4207;DHT22;2117;47.972;7.830;2023-04-19T06:12:22;8.10;99.90
4207;DHT22;2117;47.972;7.830;2023-04-19T06:14:48;8.20;99.90
4207;DHT22;2117;47.972;7.830;2023-04-19T06:17:13;8.20;99.90
4207;DHT22;2117;47.972;7.830;2023-04-19T06:19:41;8.30;99.90
4207;DHT22;2117;47.972;7.830;2023-04-19T06:22:07;8.40;99.90
4207;DHT22;2117;47.972;7.830;2023-04-19T06:24:32;8.40;99.90
4207;DHT22;2117;47.972;7.830;2023-04-19T06:26:58;8.50;99.90
4207;DHT22;2117;47.972;7.830;2023-04-19T06:29:23;8.60;99.90
4207;DHT22;2117;47.972;7.830;2023-04-19T06:31:50;8.70;99.90
4207;DHT22;2117;47.972;7.830;2023-04-19T06:34:15;8.70;99.90
4207;DHT22;2117;47.972;7.830;2023-04-19T06:36:41;8.70;99.90
4207;DHT22;2117;47.972;7.830;2023-04-19T06:39:07;8.80;99.90
4207;DHT22;2117;47.972;7.830;2023-04-19T06:41:32;8.90;99.90
4207;DHT22;2117;47.972;7.830;2023-04-19T06:43:58;8.90;99.90
4207;DHT22;2117;47.972;7.830;2023-04-19T06:46:23;9.00;99.90
4207;DHT22;2117;47.972;7.830;2023-04-19T06:48:49;9.00;99.90
4207;DHT22;2117;47.972;7.830;2023-04-19T06:51:15;9.10;99.90
4207;DHT22;2117;47.972;7.830;2023-04-19T06:53:40;9.10;99.90
4207;DHT22;2117;47.972;7.830;2023-04-19T06:56:06;9.20;99.90
4207;DHT22;2117;47.972;7.830;2023-04-19T06:58:32;9.20;99.90
4207;DHT22;2117;47.972;7.830;2023-04-19T07:00:58;9.30;99.90
4207;DHT22;2117;47.972;7.830;2023-04-19T07:03:24;9.30;99.90
4207;DHT22;2117;47.972;7.830;2023-04-19T07:05:50;9.40;99.90
4207;DHT22;2117;47.972;7.830;2023-04-19T07:08:17;9.50;99.90
4207;DHT22;2117;47.972;7.830;2023-04-19T07:10:42;9.50;99.90
4207;DHT22;2117;47.972;7.830;2023-04-19T07:13:09;9.60;99.90
4207;DHT22;2117;47.972;7.830;2023-04-19T07:15:35;9.60;99.90
4207;DHT22;2117;47.972;7.830;2023-04-19T07:18:01;9.70;99.90
4207;DHT22;2117;47.972;7.830;2023-04-19T07:20:27;9.80;99.90
4207;DHT22;2117;47.972;7.830;2023-04-19T07:22:52;9.90;99.90
4207;DHT22;2117;47.972;7.830;2023-04-19T07:25:18;10.00;99.90
4207;DHT22;2117;47.972;7.830;2023-04-19T07:27:43;10.00;99.90
4207;DHT22;2117;47.972;7.830;2023-04-19T07:30:10;10.10;99.90
4207;DHT22;2117;47.972;7.830;2023-04-19T07:32:35;10.20;99.90
4207;DHT22;2117;47.972;7.830;2023-04-19T07:35:01;10.20;99.90
4207;DHT22;2117;47.972;7.830;2023-04-19T07:37:26;10.30;99.90
4207;DHT22;2117;47.972;7.830;2023-04-19T07:39:52;10.30;99.90
4207;DHT22;2117;47.972;7.830;2023-04-19T07:42:18;10.40;99.90
4207;DHT22;2117;47.972;7.830;2023-04-19T07:44:44;10.50;99.90
4207;DHT22;2117;47.972;7.830;2023-04-19T07:47:09;10.50;99.90
4207;DHT22;2117;47.972;7.830;2023-04-19T07:49:35;10.60;99.90
4207;DHT22;2117;47.972;7.830;2023-04-19T07:52:01;10.60;99.90
4207;DHT22;2117;47.972;7.830;2023-04-19T07:54:27;10.60;99.90
4207;DHT22;2117;47.972;7.830;2023-04-19T07:56:53;10.70;99.90
4207;DHT22;2117;47.972;7.830;2023-04-19T07:59:19;10.80;99.90
4207;DHT22;2117;47.972;7.830;2023-04-19T08:01:44;10.80;99.90
4207;DHT22;2117;47.972;7.830;2023-04-19T08:04:10;10.80;99.90
4207;DHT22;2117;47.972;7.830;2023-04-19T08:06:37;10.90;99.90
4207;DHT22;2117;47.972;7.830;2023-04-19T08:09:04;11.00;99.90
4207;DHT22;2117;47.972;7.830;2023-04-19T08:11:29;10.90;99.90
4207;DHT22;2117;47.972;7.830;2023-04-19T08:13:55;11.00;99.90
4207;DHT22;2117;47.972;7.830;2023-04-19T08:16:21;11.10;99.90
4207;DHT22;2117;47.972;7.830;2023-04-19T08:18:47;11.00;99.90
4207;DHT22;2117;47.972;7.830;2023-04-19T08:21:16;11.10;99.90
4207;DHT22;2117;47.972;7.830;2023-04-19T08:23:41;11.20;99.90
4207;DHT22;2117;47.972;7.830;2023-04-19T08:26:07;11.30;99.90
4207;DHT22;2117;47.972;7.830;2023-04-19T08:28:32;11.30;99.90
4207;DHT22;2117;47.972;7.830;2023-04-19T08:33:24;11.50;99.90
4207;DHT22;2117;47.972;7.830;2023-04-19T08:35:50;11.50;99.90
4207;DHT22;2117;47.972;7.830;2023-04-19T08:38:15;11.50;99.90
4207;DHT22;2117;47.972;7.830;2023-04-19T08:40:45;11.50;99.90
4207;DHT22;2117;47.972;7.830;2023-04-19T08:43:11;11.60;99.90
4207;DHT22;2117;47.972;7.830;2023-04-19T08:45:37;11.60;99.90
4207;DHT22;2117;47.972;7.830;2023-04-19T08:48:03;11.60;99.90
4207;DHT22;2117;47.972;7.830;2023-04-19T08:50:31;11.70;99.90
4207;DHT22;2117;47.972;7.830;2023-04-19T08:52:58;11.80;99.90
4207;DHT22;2117;47.972;7.830;2023-04-19T08:55:27;11.90;99.90
4207;DHT22;2117;47.972;7.830;2023-04-19T08:57:53;11.90;99.90
4207;DHT22;2117;47.972;7.830;2023-04-19T09:00:19;11.90;99.90
4207;DHT22;2117;47.972;7.830;2023-04-19T09:02:50;12.00;99.90
4207;DHT22;2117;47.972;7.830;2023-04-19T09:05:17;11.90;99.90
4207;DHT22;2117;47.972;7.830;2023-04-19T09:07:43;12.00;99.90
4207;DHT22;2117;47.972;7.830;2023-04-19T09:10:13;12.00;99.90
4207;DHT22;2117;47.972;7.830;2023-04-19T09:12:40;12.10;99.90
4207;DHT22;2117;47.972;7.830;2023-04-19T09:15:07;12.10;99.90
4207;DHT22;2117;47.972;7.830;2023-04-19T09:17:37;12.10;99.90
4207;DHT22;2117;47.972;7.830;2023-04-19T09:20:04;12.20;99.90
4207;DHT22;2117;47.972;7.830;2023-04-19T09:22:31;12.40;99.90
4207;DHT22;2117;47.972;7.830;2023-04-19T09:24:58;12.40;99.90
4207;DHT22;2117;47.972;7.830;2023-04-19T09:27:27;12.50;99.90
4207;DHT22;2117;47.972;7.830;2023-04-19T09:29:54;12.50;99.90
4207;DHT22;2117;47.972;7.830;2023-04-19T09:32:20;12.60;99.90
4207;DHT22;2117;47.972;7.830;2023-04-19T09:34:51;12.60;99.90
4207;DHT22;2117;47.972;7.830;2023-04-19T09:37:17;12.60;99.90
4207;DHT22;2117;47.972;7.830;2023-04-19T09:39:43;12.60;99.90
4207;DHT22;2117;47.972;7.830;2023-04-19T09:42:08;12.70;99.90
4207;DHT22;2117;47.972;7.830;2023-04-19T09:44:34;12.70;99.90
4207;DHT22;2117;47.972;7.830;2023-04-19T09:47:00;12.70;99.90
4207;DHT22;2117;47.972;7.830;2023-04-19T09:49:25;12.80;99.90
4207;DHT22;2117;47.972;7.830;2023-04-19T09:54:23;12.80;99.90
4207;DHT22;2117;47.972;7.830;2023-04-19T09:56:49;12.70;99.90
4207;DHT22;2117;47.972;7.830;2023-04-19T09:59:15;12.60;99.90
4207;DHT22;2117;47.972;7.830;2023-04-19T10:01:59;12.80;99.90
4207;DHT22;2117;47.972;7.830;2023-04-19T10:04:26;12.80;99.90
4207;DHT22;2117;47.972;7.830;2023-04-19T10:06:53;12.80;99.90
4207;DHT22;2117;47.972;7.830;2023-04-19T10:09:20;12.80;99.90
4207;DHT22;2117;47.972;7.830;2023-04-19T10:11:50;12.80;99.90
4207;DHT22;2117;47.972;7.830;2023-04-19T10:14:21;12.90;99.90
4207;DHT22;2117;47.972;7.830;2023-04-19T10:16:46;13.00;99.90
4207;DHT22;2117;47.972;7.830;2023-04-19T10:19:14;13.00;99.90
4207;DHT22;2117;47.972;7.830;2023-04-19T10:21:41;13.10;99.90
4207;DHT22;2117;47.972;7.830;2023-04-19T10:24:12;13.20;99.90
4207;DHT22;2117;47.972;7.830;2023-04-19T10:27:04;13.10;99.90
4207;DHT22;2117;47.972;7.830;2023-04-19T10:32:16;13.20;99.90
4207;DHT22;2117;47.972;7.830;2023-04-19T10:34:41;13.20;99.90
4207;DHT22;2117;47.972;7.830;2023-04-19T10:37:10;13.30;99.90
4207;DHT22;2117;47.972;7.830;2023-04-19T10:39:43;13.30;99.90
4207;DHT22;2117;47.972;7.830;2023-04-19T10:42:09;13.30;99.90
4207;DHT22;2117;47.972;7.830;2023-04-19T10:44:35;13.40;99.90
4207;DHT22;2117;47.972;7.830;2023-04-19T10:47:01;13.30;99.90
4207;DHT22;2117;47.972;7.830;2023-04-19T10:49:29;13.50;99.90
4207;DHT22;2117;47.972;7.830;2023-04-19T10:54:32;13.40;99.90
4207;DHT22;2117;47.972;7.830;2023-04-19T10:59:30;13.60;99.90
4207;DHT22;2117;47.972;7.830;2023-04-19T11:01:58;13.70;99.90
4207;DHT22;2117;47.972;7.830;2023-04-19T11:06:58;13.70;99.90
4207;DHT22;2117;47.972;7.830;2023-04-19T11:09:39;13.60;99.90
4207;DHT22;2117;47.972;7.830;2023-04-19T11:12:13;13.70;99.90
4207;DHT22;2117;47.972;7.830;2023-04-19T11:14:41;13.70;99.90
4207;DHT22;2117;47.972;7.830;2023-04-19T11:17:17;13.70;99.90
4207;DHT22;2117;47.972;7.830;2023-04-19T11:20:07;13.70;99.90
4207;DHT22;2117;47.972;7.830;2023-04-19T11:22:40;13.70;99.90
4207;DHT22;2117;47.972;7.830;2023-04-19T11:25:06;13.70;99.90
4207;DHT22;2117;47.972;7.830;2023-04-19T11:27:33;13.60;99.90
4207;DHT22;2117;47.972;7.830;2023-04-19T11:30:06;13.60;99.90
4207;DHT22;2117;47.972;7.830;2023-04-19T11:32:32;13.60;99.90
4207;DHT22;2117;47.972;7.830;2023-04-19T11:35:06;13.70;99.90
4207;DHT22;2117;47.972;7.830;2023-04-19T11:37:36;13.60;99.90
4207;DHT22;2117;47.972;7.830;2023-04-19T11:40:04;13.70;99.90
4207;DHT22;2117;47.972;7.830;2023-04-19T11:42:30;13.70;99.90
4207;DHT22;2117;47.972;7.830;2023-04-19T11:47:25;13.80;99.90
4207;DHT22;2117;47.972;7.830;2023-04-19T11:49:50;13.80;99.90
4207;DHT22;2117;47.972;7.830;2023-04-19T11:52:21;13.90;99.90
4207;DHT22;2117;47.972;7.830;2023-04-19T11:54:47;13.90;99.90
4207;DHT22;2117;47.972;7.830;2023-04-19T11:57:13;14.00;99.90
4207;DHT22;2117;47.972;7.830;2023-04-19T12:00:05;13.90;99.90
4207;DHT22;2117;47.972;7.830;2023-04-19T12:02:42;13.90;99.90
4207;DHT22;2117;47.972;7.830;2023-04-19T12:05:13;13.90;99.90
4207;DHT22;2117;47.972;7.830;2023-04-19T12:08:01;14.00;99.90
4207;DHT22;2117;47.972;7.830;2023-04-19T12:10:31;13.90;99.90
4207;DHT22;2117;47.972;7.830;2023-04-19T12:12:57;13.90;99.90
4207;DHT22;2117;47.972;7.830;2023-04-19T12:15:23;13.90;99.90
4207;DHT22;2117;47.972;7.830;2023-04-19T12:18:05;13.90;99.90
4207;DHT22;2117;47.972;7.830;2023-04-19T12:20:35;13.90;99.90
4207;DHT22;2117;47.972;7.830;2023-04-19T12:23:01;13.90;99.90
4207;DHT22;2117;47.972;7.830;2023-04-19T12:25:29;13.90;99.90
4207;DHT22;2117;47.972;7.830;2023-04-19T12:27:55;13.80;99.90
4207;DHT22;2117;47.972;7.830;2023-04-19T12:30:20;13.80;99.90
4207;DHT22;2117;47.972;7.830;2023-04-19T12:32:46;13.90;99.90
4207;DHT22;2117;47.972;7.830;2023-04-19T12:35:11;13.90;99.90
4207;DHT22;2117;47.972;7.830;2023-04-19T12:37:37;13.90;99.90
4207;DHT22;2117;47.972;7.830;2023-04-19T12:40:03;13.80;99.90
4207;DHT22;2117;47.972;7.830;2023-04-19T12:44:55;13.80;99.90
4207;DHT22;2117;47.972;7.830;2023-04-19T12:47:21;13.90;99.90
4207;DHT22;2117;47.972;7.830;2023-04-19T12:49:47;14.00;99.90
4207;DHT22;2117;47.972;7.830;2023-04-19T12:52:12;14.10;99.90
4207;DHT22;2117;47.972;7.830;2023-04-19T12:54:38;14.10;99.90
4207;DHT22;2117;47.972;7.830;2023-04-19T12:57:04;14.10;99.90
4207;DHT22;2117;47.972;7.830;2023-04-19T12:59:30;14.10;99.90
4207;DHT22;2117;47.972;7.830;2023-04-19T13:04:22;14.20;99.90
4207;DHT22;2117;47.972;7.830;2023-04-19T13:06:47;14.40;99.90
4207;DHT22;2117;47.972;7.830;2023-04-19T13:11:39;14.50;99.90
4207;DHT22;2117;47.972;7.830;2023-04-19T13:14:04;14.60;99.90
4207;DHT22;2117;47.972;7.830;2023-04-19T13:16:30;14.70;99.90
4207;DHT22;2117;47.972;7.830;2023-04-19T13:18:56;14.70;99.90
4207;DHT22;2117;47.972;7.830;2023-04-19T13:23:48;14.90;99.90
4207;DHT22;2117;47.972;7.830;2023-04-19T13:26:14;15.00;99.90
4207;DHT22;2117;47.972;7.830;2023-04-19T13:28:41;15.10;99.90
4207;DHT22;2117;47.972;7.830;2023-04-19T13:31:07;15.30;99.90
4207;DHT22;2117;47.972;7.830;2023-04-19T13:33:32;15.40;99.90
4207;DHT22;2117;47.972;7.830;2023-04-19T13:35:58;15.40;99.90
4207;DHT22;2117;47.972;7.830;2023-04-19T13:38:24;15.40;99.90
4207;DHT22;2117;47.972;7.830;2023-04-19T13:40:49;15.60;99.90
4207;DHT22;2117;47.972;7.830;2023-04-19T13:43:16;15.40;99.90
4207;DHT22;2117;47.972;7.830;2023-04-19T13:45:41;15.40;99.90
4207;DHT22;2117;47.972;7.830;2023-04-19T13:48:07;15.30;99.90
4207;DHT22;2117;47.972;7.830;2023-04-19T13:50:32;15.30;99.90
4207;DHT22;2117;47.972;7.830;2023-04-19T13:55:25;15.10;99.90
4207;DHT22;2117;47.972;7.830;2023-04-19T13:57:51;15.10;99.90
4207;DHT22;2117;47.972;7.830;2023-04-19T14:00:17;15.10;99.90
4207;DHT22;2117;47.972;7.830;2023-04-19T14:02:44;14.90;99.90
4207;DHT22;2117;47.972;7.830;2023-04-19T14:05:10;15.00;99.90
4207;DHT22;2117;47.972;7.830;2023-04-19T14:07:38;14.90;99.90
4207;DHT22;2117;47.972;7.830;2023-04-19T14:10:05;14.90;99.90
4207;DHT22;2117;47.972;7.830;2023-04-19T14:12:31;14.80;99.90
4207;DHT22;2117;47.972;7.830;2023-04-19T14:14:58;14.90;99.90
4207;DHT22;2117;47.972;7.830;2023-04-19T14:17:23;14.90;99.90
4207;DHT22;2117;47.972;7.830;2023-04-19T14:19:49;14.90;99.90
4207;DHT22;2117;47.972;7.830;2023-04-19T14:22:15;14.90;99.90
4207;DHT22;2117;47.972;7.830;2023-04-19T14:24:41;14.90;99.90
4207;DHT22;2117;47.972;7.830;2023-04-19T14:27:07;15.00;99.90
4207;DHT22;2117;47.972;7.830;2023-04-19T14:29:32;14.80;99.90
4207;DHT22;2117;47.972;7.830;2023-04-19T14:31:58;14.70;99.90
4207;DHT22;2117;47.972;7.830;2023-04-19T14:34:24;14.70;99.90
4207;DHT22;2117;47.972;7.830;2023-04-19T14:36:50;14.70;99.90
4207;DHT22;2117;47.972;7.830;2023-04-19T14:39:15;14.60;99.90
4207;DHT22;2117;47.972;7.830;2023-04-19T14:41:41;14.50;99.90
4207;DHT22;2117;47.972;7.830;2023-04-19T14:44:06;14.50;99.90
4207;DHT22;2117;47.972;7.830;2023-04-19T14:46:32;14.40;99.90
4207;DHT22;2117;47.972;7.830;2023-04-19T14:48:58;14.40;99.90
4207;DHT22;2117;47.972;7.830;2023-04-19T14:51:31;14.30;99.90
4207;DHT22;2117;47.972;7.830;2023-04-19T14:53:57;14.30;99.90
4207;DHT22;2117;47.972;7.830;2023-04-19T14:56:23;14.30;99.90
4207;DHT22;2117;47.972;7.830;2023-04-19T14:58:49;14.30;99.90
4207;DHT22;2117;47.972;7.830;2023-04-19T15:01:16;14.40;99.90
4207;DHT22;2117;47.972;7.830;2023-04-19T15:03:42;14.40;99.90
4207;DHT22;2117;47.972;7.830;2023-04-19T15:06:08;14.30;99.90
4207;DHT22;2117;47.972;7.830;2023-04-19T15:08:34;14.40;99.90
4207;DHT22;2117;47.972;7.830;2023-04-19T15:10:59;14.40;99.90
4207;DHT22;2117;47.972;7.830;2023-04-19T15:13:25;14.40;99.90
4207;DHT22;2117;47.972;7.830;2023-04-19T15:15:51;14.50;99.90
4207;DHT22;2117;47.972;7.830;2023-04-19T15:18:16;14.40;99.90
4207;DHT22;2117;47.972;7.830;2023-04-19T15:20:42;14.40;99.90
4207;DHT22;2117;47.972;7.830;2023-04-19T15:23:07;14.50;99.90
4207;DHT22;2117;47.972;7.830;2023-04-19T15:25:36;14.50;99.90
4207;DHT22;2117;47.972;7.830;2023-04-19T15:28:02;14.60;99.90
4207;DHT22;2117;47.972;7.830;2023-04-19T15:30:29;14.60;99.90
4207;DHT22;2117;47.972;7.830;2023-04-19T15:32:54;14.70;99.90
4207;DHT22;2117;47.972;7.830;2023-04-19T15:35:20;14.70;99.90
4207;DHT22;2117;47.972;7.830;2023-04-19T15:37:46;14.70;99.90
4207;DHT22;2117;47.972;7.830;2023-04-19T15:40:12;14.70;99.90
4207;DHT22;2117;47.972;7.830;2023-04-19T15:42:39;14.90;99.90
4207;DHT22;2117;47.972;7.830;2023-04-19T15:45:05;15.10;99.90
4207;DHT22;2117;47.972;7.830;2023-04-19T15:47:32;15.40;99.90
4207;DHT22;2117;47.972;7.830;2023-04-19T15:49:59;15.60;99.90
4207;DHT22;2117;47.972;7.830;2023-04-19T15:52:25;15.80;99.90
4207;DHT22;2117;47.972;7.830;2023-04-19T15:54:50;16.00;99.90
4207;DHT22;2117;47.972;7.830;2023-04-19T15:57:16;15.90;99.90
4207;DHT22;2117;47.972;7.830;2023-04-19T15:59:42;15.80;99.90
4207;DHT22;2117;47.972;7.830;2023-04-19T16:02:07;15.60;99.90
4207;DHT22;2117;47.972;7.830;2023-04-19T16:04:33;15.50;99.90
4207;DHT22;2117;47.972;7.830;2023-04-19T16:06:58;15.30;99.90
4207;DHT22;2117;47.972;7.830;2023-04-19T16:09:24;15.20;99.90
4207;DHT22;2117;47.972;7.830;2023-04-19T16:11:50;15.10;99.90
4207;DHT22;2117;47.972;7.830;2023-04-19T16:14:16;15.00;99.90
4207;DHT22;2117;47.972;7.830;2023-04-19T16:16:41;14.90;99.90
4207;DHT22;2117;47.972;7.830;2023-04-19T16:19:07;14.70;99.90
4207;DHT22;2117;47.972;7.830;2023-04-19T16:21:32;14.70;99.90
4207;DHT22;2117;47.972;7.830;2023-04-19T16:23:58;14.60;99.90
4207;DHT22;2117;47.972;7.830;2023-04-19T16:26:25;14.60;99.90
4207;DHT22;2117;47.972;7.830;2023-04-19T16:28:51;14.50;99.90
4207;DHT22;2117;47.972;7.830;2023-04-19T16:31:16;14.40;99.90
4207;DHT22;2117;47.972;7.830;2023-04-19T16:33:42;14.30;99.90
4207;DHT22;2117;47.972;7.830;2023-04-19T16:36:07;14.30;99.90